Time;durP1;ratioP1;P1;durP2;ratioP2;P2;SDS_P1;SDS_P2;PMS_P1;PMS_P2;Temp;Humidity;BMP_temperature;BMP_pressure;BME280_temperature;BME280_humidity;BME280_pressure;Samples;Min_cycle;Max_cycle;Signal;HPM_P1;HPM_P2
2022/08/14 00:00:49;;;;;;;1999.90;999.90;;;20.10;99.90;;;;;;5052865;28;20519;-74
2022/08/14 00:03:26;;;;;;;1999.90;999.90;;;20.00;99.90;;;;;;5050946;28;20059;-74
2022/08/14 00:05:53;;;;;;;1999.90;999.90;;;20.00;99.90;;;;;;5075938;28;20405;-74
2022/08/14 00:08:19;;;;;;;1999.90;999.90;;;19.90;99.90;;;;;;5070909;28;20124;-74
2022/08/14 00:10:45;;;;;;;1999.90;999.90;;;19.90;99.90;;;;;;5050273;28;20131;-74
2022/08/14 00:13:12;;;;;;;1999.90;999.90;;;19.90;99.90;;;;;;5087142;28;20499;-74
2022/08/14 00:15:40;;;;;;;1999.90;999.90;;;19.90;99.90;;;;;;5070236;28;20049;-74
2022/08/14 00:18:08;;;;;;;1999.90;999.90;;;19.80;99.90;;;;;;5067125;28;20135;-74
2022/08/14 00:20:36;;;;;;;1999.90;999.90;;;19.80;99.90;;;;;;5049374;28;20049;-74
2022/08/14 00:23:04;;;;;;;1999.90;999.90;;;19.80;99.90;;;;;;5046823;28;20068;-74
2022/08/14 00:25:29;;;;;;;1999.90;999.90;;;19.70;99.90;;;;;;5051399;28;20107;-74
2022/08/14 00:27:55;;;;;;;1999.90;999.90;;;19.70;99.90;;;;;;5068602;28;20488;-74
2022/08/14 00:30:21;;;;;;;1999.90;999.90;;;19.60;99.90;;;;;;5054582;28;20044;-74
2022/08/14 00:32:47;;;;;;;1999.90;999.90;;;19.50;99.90;;;;;;5050474;28;20037;-74
2022/08/14 00:35:13;;;;;;;1999.90;999.90;;;19.40;99.90;;;;;;5046599;28;20059;-74
2022/08/14 00:37:41;;;;;;;1999.90;999.90;;;19.40;99.90;;;;;;5055209;28;20087;-74
2022/08/14 00:40:09;;;;;;;1999.90;999.90;;;19.30;99.90;;;;;;5064044;28;20057;-74
2022/08/14 00:42:35;;;;;;;1999.90;999.90;;;19.20;99.90;;;;;;5060344;28;20049;-74
2022/08/14 00:45:00;;;;;;;1999.90;999.90;;;19.10;99.90;;;;;;5064049;28;20041;-75
2022/08/14 00:47:26;;;;;;;1999.90;999.90;;;19.10;99.90;;;;;;5051386;28;20037;-74
2022/08/14 00:49:55;;;;;;;1999.90;999.90;;;19.00;99.90;;;;;;5049321;28;20048;-74
2022/08/14 00:52:22;;;;;;;1999.90;999.90;;;19.00;99.90;;;;;;5050037;28;20442;-74
2022/08/14 00:54:52;;;;;;;1999.90;999.90;;;18.90;99.90;;;;;;5057189;28;20079;-74
2022/08/14 00:57:19;;;;;;;1999.90;999.90;;;18.90;99.90;;;;;;5066959;28;20066;-74
2022/08/14 00:59:45;;;;;;;1999.90;999.90;;;18.80;99.90;;;;;;5048155;28;20157;-74
2022/08/14 01:02:13;;;;;;;1999.90;999.90;;;18.80;99.90;;;;;;5082609;28;20528;-74
2022/08/14 01:04:42;;;;;;;1999.90;999.90;;;18.70;99.90;;;;;;5050948;28;20039;-74
2022/08/14 01:07:08;;;;;;;1999.90;999.90;;;18.70;99.90;;;;;;5050094;28;20036;-74
2022/08/14 01:09:35;;;;;;;1999.90;999.90;;;18.70;99.90;;;;;;5070042;28;20110;-74
2022/08/14 01:12:03;;;;;;;1999.90;999.90;;;18.70;99.90;;;;;;5072497;28;20431;-74
2022/08/14 01:14:29;;;;;;;1999.90;999.90;;;18.60;99.90;;;;;;5045055;28;20044;-74
2022/08/14 01:16:54;;;;;;;1999.90;999.90;;;18.60;99.90;;;;;;5050174;28;20039;-74
2022/08/14 01:22:06;;;;;;;1999.90;999.90;;;18.50;99.90;;;;;;5095578;28;20063;-74
2022/08/14 01:24:32;;;;;;;1999.90;999.90;;;18.50;99.90;;;;;;5060726;28;20101;-74
2022/08/14 01:26:58;;;;;;;1999.90;999.90;;;18.50;99.90;;;;;;5078838;28;20056;-73
2022/08/14 01:29:26;;;;;;;1999.90;999.90;;;18.40;99.90;;;;;;5079077;28;20044;-74
2022/08/14 01:31:51;;;;;;;1999.90;999.90;;;18.40;99.90;;;;;;5054961;28;20507;-74
2022/08/14 01:34:19;;;;;;;1999.90;999.90;;;18.40;99.90;;;;;;5064834;28;20139;-73
2022/08/14 01:36:45;;;;;;;1999.90;999.90;;;18.40;99.90;;;;;;5064209;28;20045;-74
2022/08/14 01:39:16;;;;;;;1999.90;999.90;;;18.40;99.90;;;;;;5034830;28;20611;-74
2022/08/14 01:41:45;;;;;;;1999.90;999.90;;;18.30;99.90;;;;;;5034747;28;20455;-74
2022/08/14 01:44:14;;;;;;;1999.90;999.90;;;18.30;99.90;;;;;;5063851;28;20055;-74
2022/08/14 01:46:45;;;;;;;1999.90;999.90;;;18.30;99.90;;;;;;5063683;28;20037;-74
2022/08/14 01:49:14;;;;;;;1999.90;999.90;;;18.20;99.90;;;;;;5060248;28;20050;-73
2022/08/14 01:51:40;;;;;;;1999.90;999.90;;;18.20;99.90;;;;;;5097601;28;20048;-74
2022/08/14 01:54:12;;;;;;;1999.90;999.90;;;18.20;99.90;;;;;;5058500;28;20530;-74
2022/08/14 01:56:43;;;;;;;1999.90;999.90;;;18.20;99.90;;;;;;5067065;28;20574;-73
2022/08/14 01:59:19;;;;;;;1999.90;999.90;;;18.10;99.90;;;;;;5046580;28;20076;-74
2022/08/14 02:01:50;;;;;;;1999.90;999.90;;;18.10;99.90;;;;;;5062272;28;20090;-74
2022/08/14 02:04:19;;;;;;;1999.90;999.90;;;18.20;99.90;;;;;;5046993;28;20369;-73
2022/08/14 02:06:49;;;;;;;1999.90;999.90;;;18.20;99.90;;;;;;5067888;28;20884;-74
2022/08/14 02:09:17;;;;;;;1999.90;999.90;;;18.20;99.90;;;;;;5049163;28;20050;-74
2022/08/14 02:11:43;;;;;;;1999.90;999.90;;;18.30;99.90;;;;;;5041471;28;20052;-74
2022/08/14 02:14:11;;;;;;;1999.90;999.90;;;18.30;99.90;;;;;;5066765;28;20500;-73
2022/08/14 02:16:41;;;;;;;1999.90;999.90;;;18.40;99.90;;;;;;5066630;28;20040;-74
2022/08/14 02:19:13;;;;;;;1999.90;999.90;;;18.40;99.90;;;;;;5044173;28;20481;-74
2022/08/14 02:21:42;;;;;;;1999.90;999.90;;;18.40;99.90;;;;;;5047978;28;20058;-74
2022/08/14 02:24:08;;;;;;;1999.90;999.90;;;18.50;99.90;;;;;;5062276;28;20059;-74
2022/08/14 02:26:36;;;;;;;1999.90;999.90;;;18.50;99.90;;;;;;5085985;28;20040;-74
2022/08/14 02:29:10;;;;;;;1999.90;999.90;;;18.60;99.90;;;;;;5058686;28;20029;-73
2022/08/14 02:31:40;;;;;;;1999.90;999.90;;;18.60;99.90;;;;;;5058982;28;20048;-74
2022/08/14 02:34:10;;;;;;;1999.90;999.90;;;18.60;99.90;;;;;;5048594;28;20052;-74
2022/08/14 02:36:40;;;;;;;1999.90;999.90;;;18.60;99.90;;;;;;5054109;28;20416;-73
2022/08/14 02:39:08;;;;;;;1999.90;999.90;;;18.60;99.90;;;;;;5056881;28;20476;-73
2022/08/14 02:41:35;;;;;;;1999.90;999.90;;;18.60;99.90;;;;;;5057379;28;20036;-74
2022/08/14 02:44:05;;;;;;;1999.90;999.90;;;18.70;99.90;;;;;;5059383;28;20119;-74
2022/08/14 02:46:32;;;;;;;1999.90;999.90;;;18.70;99.90;;;;;;5041040;28;20072;-74
2022/08/14 02:48:58;;;;;;;1999.90;999.90;;;18.70;99.90;;;;;;5067784;28;20051;-73
2022/08/14 02:51:25;;;;;;;1999.90;999.90;;;18.70;99.90;;;;;;5069148;28;20044;-75
2022/08/14 02:53:53;;;;;;;1999.90;999.90;;;18.70;99.90;;;;;;5068841;28;20102;-74
2022/08/14 02:56:19;;;;;;;1999.90;999.90;;;18.70;99.90;;;;;;5067047;28;20046;-74
2022/08/14 02:58:50;;;;;;;1999.90;999.90;;;18.70;99.90;;;;;;5070283;28;20041;-73
2022/08/14 03:01:19;;;;;;;1999.90;999.90;;;18.70;99.90;;;;;;5053249;28;20047;-74
2022/08/14 03:03:47;;;;;;;1999.90;999.90;;;18.70;99.90;;;;;;5056895;28;20520;-74
2022/08/14 03:06:14;;;;;;;1999.90;999.90;;;18.80;99.90;;;;;;5060767;28;20090;-74
2022/08/14 03:08:41;;;;;;;1999.90;999.90;;;18.70;99.90;;;;;;5051929;28;20033;-74
2022/08/14 03:11:10;;;;;;;1999.90;999.90;;;18.70;99.90;;;;;;5050241;28;20049;-74
2022/08/14 03:13:39;;;;;;;1999.90;999.90;;;18.70;99.90;;;;;;5051458;28;20515;-73
2022/08/14 03:16:08;;;;;;;1999.90;999.90;;;18.70;99.90;;;;;;5073047;28;20445;-74
2022/08/14 03:18:33;;;;;;;1999.90;999.90;;;18.70;99.90;;;;;;5063149;28;20382;-74
2022/08/14 03:21:10;;;;;;;1999.90;999.90;;;18.70;99.90;;;;;;5064463;28;20488;-74
2022/08/14 03:23:35;;;;;;;1999.90;999.90;;;18.70;99.90;;;;;;5059714;28;20097;-74
2022/08/14 03:26:02;;;;;;;1999.90;999.90;;;18.70;99.90;;;;;;5073761;28;20044;-73
2022/08/14 03:28:29;;;;;;;1999.90;999.90;;;18.70;99.90;;;;;;5075310;28;20453;-74
2022/08/14 03:30:56;;;;;;;1999.90;999.90;;;18.70;99.90;;;;;;5064916;28;20044;-73
2022/08/14 03:33:22;;;;;;;1999.90;999.90;;;18.60;99.90;;;;;;5067051;28;20492;-74
2022/08/14 03:35:49;;;;;;;1999.90;999.90;;;18.60;99.90;;;;;;5056918;28;20086;-74
2022/08/14 03:38:17;;;;;;;1999.90;999.90;;;18.60;99.90;;;;;;5056663;28;20366;-73
2022/08/14 03:40:45;;;;;;;1999.90;999.90;;;18.60;99.90;;;;;;5070338;28;20049;-73
2022/08/14 03:43:12;;;;;;;1999.90;999.90;;;18.50;99.90;;;;;;5045568;28;20098;-74
2022/08/14 03:45:39;;;;;;;1999.90;999.90;;;18.50;99.90;;;;;;5058489;28;20174;-74
2022/08/14 03:48:19;;;;;;;1999.90;999.90;;;18.50;99.90;;;;;;5061162;28;20055;-74
2022/08/14 03:50:52;;;;;;;1999.90;999.90;;;18.50;99.90;;;;;;5043252;28;20044;-74
2022/08/14 03:53:19;;;;;;;1999.90;999.90;;;18.50;99.90;;;;;;5049660;28;20140;-74
2022/08/14 03:55:46;;;;;;;1999.90;999.90;;;18.50;99.90;;;;;;5050858;28;20032;-74
2022/08/14 03:58:12;;;;;;;1999.90;999.90;;;18.50;99.90;;;;;;5050870;28;20097;-74
2022/08/14 04:00:39;;;;;;;1999.90;999.90;;;18.50;99.90;;;;;;5065581;28;20052;-74
2022/08/14 04:03:07;;;;;;;1999.90;999.90;;;18.40;99.90;;;;;;5050406;28;20120;-73
2022/08/14 04:05:34;;;;;;;1999.90;999.90;;;18.40;99.90;;;;;;5066268;28;20029;-73
2022/08/14 04:07:59;;;;;;;1999.90;999.90;;;18.40;99.90;;;;;;5068733;28;20045;-73
2022/08/14 04:10:25;;;;;;;1999.90;999.90;;;18.40;99.90;;;;;;5050949;28;20048;-73
2022/08/14 04:12:51;;;;;;;1999.90;999.90;;;18.40;99.90;;;;;;5053668;28;20037;-73
2022/08/14 04:15:18;;;;;;;1999.90;999.90;;;18.30;99.90;;;;;;5068369;28;20098;-74
2022/08/14 04:17:45;;;;;;;1999.90;999.90;;;18.30;99.90;;;;;;5051628;28;20123;-73
2022/08/14 04:20:11;;;;;;;1999.90;999.90;;;18.30;99.90;;;;;;5060570;28;20044;-73
2022/08/14 04:22:42;;;;;;;1999.90;999.90;;;18.30;99.90;;;;;;5050098;28;20112;-73
2022/08/14 04:25:09;;;;;;;1999.90;999.90;;;18.20;99.90;;;;;;5062346;28;20068;-73
2022/08/14 04:27:35;;;;;;;1999.90;999.90;;;18.20;99.90;;;;;;5064135;28;20051;-74
2022/08/14 04:30:01;;;;;;;1999.90;999.90;;;18.20;99.90;;;;;;5068423;28;20128;-73
2022/08/14 04:32:27;;;;;;;1999.90;999.90;;;18.20;99.90;;;;;;5051117;28;20044;-73
2022/08/14 04:34:53;;;;;;;1999.90;999.90;;;18.10;99.90;;;;;;5051541;28;20043;-74
2022/08/14 04:45:41;;;;;;;1999.90;999.90;;;18.10;99.90;;;;;;5066936;28;20044;-73
2022/08/14 04:48:14;;;;;;;1999.90;999.90;;;18.10;99.90;;;;;;5059180;28;20445;-73
2022/08/14 04:50:45;;;;;;;1999.90;999.90;;;18.10;99.90;;;;;;5038403;28;20408;-73
2022/08/14 04:53:14;;;;;;;1999.90;999.90;;;18.10;99.90;;;;;;5056133;28;20074;-74
2022/08/14 04:55:46;;;;;;;1999.90;999.90;;;18.20;99.90;;;;;;5063031;28;20045;-73
2022/08/14 04:58:13;;;;;;;1999.90;999.90;;;18.20;99.90;;;;;;5061711;28;20053;-73
2022/08/14 05:00:38;;;;;;;1999.90;999.90;;;18.20;99.90;;;;;;5041129;28;20055;-73
2022/08/14 05:03:06;;;;;;;1999.90;999.90;;;18.30;99.90;;;;;;5041590;28;20033;-73
2022/08/14 05:05:31;;;;;;;1999.90;999.90;;;18.30;99.90;;;;;;5064353;28;20040;-73
2022/08/14 05:08:08;;;;;;;1999.90;999.90;;;18.30;99.90;;;;;;5064905;28;20532;-73
2022/08/14 05:10:35;;;;;;;1999.90;999.90;;;18.40;99.90;;;;;;5067782;28;20055;-73
2022/08/14 05:13:04;;;;;;;1999.90;999.90;;;18.40;99.90;;;;;;5042139;28;20089;-73
2022/08/14 05:15:30;;;;;;;1999.90;999.90;;;18.50;99.90;;;;;;5066996;28;20066;-73
2022/08/14 05:17:55;;;;;;;1999.90;999.90;;;18.50;99.90;;;;;;5067507;28;20205;-73
2022/08/14 05:20:21;;;;;;;1999.90;999.90;;;18.60;99.90;;;;;;5049046;28;20558;-73
2022/08/14 05:22:48;;;;;;;1999.90;999.90;;;18.70;99.90;;;;;;5066827;28;20036;-73
2022/08/14 05:25:13;;;;;;;1999.90;999.90;;;18.70;99.90;;;;;;5067020;28;20045;-73
2022/08/14 05:27:39;;;;;;;1999.90;999.90;;;18.80;99.90;;;;;;5065366;28;20043;-74
2022/08/14 05:30:05;;;;;;;1999.90;999.90;;;18.90;99.90;;;;;;5067615;28;20062;-73
2022/08/14 05:32:31;;;;;;;1999.90;999.90;;;18.90;99.90;;;;;;5060687;28;20081;-73
2022/08/14 05:34:58;;;;;;;1999.90;999.90;;;19.10;99.90;;;;;;5069213;28;20083;-73
2022/08/14 05:37:26;;;;;;;1999.90;999.90;;;19.20;99.90;;;;;;5060176;28;20488;-73
2022/08/14 05:39:51;;;;;;;1999.90;999.90;;;19.30;99.90;;;;;;5066887;28;20486;-74
2022/08/14 05:42:17;;;;;;;1999.90;999.90;;;19.70;99.90;;;;;;5067300;28;20661;-73
2022/08/14 05:44:42;;;;;;;1999.90;999.90;;;20.20;99.90;;;;;;5067233;28;20477;-73
2022/08/14 05:47:10;;;;;;;1999.90;999.90;;;20.50;99.90;;;;;;5045190;28;20040;-74
2022/08/14 05:49:36;;;;;;;1999.90;999.90;;;20.70;99.90;;;;;;5066631;28;20154;-73
2022/08/14 05:52:02;;;;;;;1999.90;999.90;;;20.80;99.90;;;;;;5066918;28;20548;-73
2022/08/14 05:54:28;;;;;;;1999.90;999.90;;;20.90;99.90;;;;;;5067508;28;20134;-74
2022/08/14 05:56:54;;;;;;;1999.90;999.90;;;20.80;99.90;;;;;;5053303;28;20479;-74
2022/08/14 05:59:19;;;;;;;1999.90;999.90;;;20.80;99.90;;;;;;5067119;28;20334;-74
2022/08/14 06:01:45;;;;;;;1999.90;999.90;;;20.70;99.90;;;;;;5067083;28;20041;-73
2022/08/14 06:04:11;;;;;;;1999.90;999.90;;;20.70;99.90;;;;;;5044094;28;20085;-73
2022/08/14 06:06:36;;;;;;;1999.90;999.90;;;20.70;99.90;;;;;;5067045;28;20044;-74
2022/08/14 06:09:02;;;;;;;1999.90;999.90;;;20.70;99.90;;;;;;5062836;28;20040;-73
2022/08/14 06:11:28;;;;;;;1999.90;999.90;;;20.80;99.90;;;;;;5080715;28;20527;-74
2022/08/14 06:13:54;;;;;;;1999.90;999.90;;;20.80;99.90;;;;;;5049716;28;20044;-73
2022/08/14 06:16:19;;;;;;;1999.90;999.90;;;20.80;99.90;;;;;;5070966;28;20477;-73
2022/08/14 06:18:47;;;;;;;1999.90;999.90;;;20.90;99.90;;;;;;5059596;28;20036;-73
2022/08/14 06:21:14;;;;;;;1999.90;999.90;;;20.90;99.90;;;;;;5050073;28;20446;-74
2022/08/14 06:23:40;;;;;;;1999.90;999.90;;;21.00;99.90;;;;;;5054401;28;20051;-74
2022/08/14 06:26:05;;;;;;;1999.90;999.90;;;21.20;99.90;;;;;;5054645;28;20032;-74
2022/08/14 06:28:31;;;;;;;1999.90;999.90;;;21.70;99.90;;;;;;5061840;28;20043;-74
2022/08/14 06:30:57;;;;;;;1999.90;999.90;;;22.20;99.90;;;;;;5054228;28;20504;-73
2022/08/14 06:33:23;;;;;;;1999.90;999.90;;;22.70;99.90;;;;;;5069884;28;20051;-73
2022/08/14 06:35:49;;;;;;;1999.90;999.90;;;22.80;99.90;;;;;;5067780;28;20045;-73
2022/08/14 06:38:21;;;;;;;1999.90;999.90;;;22.70;99.90;;;;;;5056540;28;20040;-73
2022/08/14 06:40:48;;;;;;;1999.90;999.90;;;22.70;99.90;;;;;;5070524;28;20899;-73
2022/08/14 06:43:15;;;;;;;1999.90;999.90;;;22.70;99.90;;;;;;5070779;28;20509;-74
2022/08/14 06:45:44;;;;;;;1999.90;999.90;;;22.60;99.90;;;;;;5069139;28;20380;-73
2022/08/14 06:48:19;;;;;;;1999.90;999.90;;;22.60;99.90;;;;;;5064841;28;20499;-74
2022/08/14 06:50:46;;;;;;;1999.90;999.90;;;22.70;99.90;;;;;;5052947;28;20480;-73
2022/08/14 06:53:13;;;;;;;1999.90;999.90;;;22.90;99.90;;;;;;5082043;28;20874;-74
2022/08/14 06:55:40;;;;;;;1999.90;999.90;;;23.20;99.90;;;;;;5068008;28;20051;-74
2022/08/14 06:58:11;;;;;;;1999.90;999.90;;;23.70;99.90;;;;;;5070086;28;20040;-73
2022/08/14 07:00:37;;;;;;;1999.90;999.90;;;24.70;99.90;;;;;;5069945;28;20033;-74
2022/08/14 07:05:47;;;;;;;1999.90;999.90;;;26.50;99.90;;;;;;5060113;28;20047;-74
2022/08/14 07:08:26;;;;;;;1999.90;999.90;;;27.20;99.90;;;;;;5068861;28;20044;-74
2022/08/14 07:10:56;;;;;;;1999.90;999.90;;;27.70;99.00;;;;;;5064820;28;20048;-74
2022/08/14 07:13:23;;;;;;;1999.90;999.90;;;27.10;97.80;;;;;;5061702;28;20404;-74
2022/08/14 07:15:50;;;;;;;1999.90;999.90;;;26.50;98.50;;;;;;5069723;28;20044;-74
2022/08/14 07:18:21;;;;;;;1999.90;999.90;;;26.20;98.40;;;;;;5061724;28;20045;-74
2022/08/14 07:20:47;;;;;;;1999.90;999.90;;;26.00;99.00;;;;;;5049188;28;20041;-74
2022/08/14 07:23:13;;;;;;;1999.90;999.90;;;26.00;99.10;;;;;;5052085;28;20170;-74
2022/08/14 07:25:42;;;;;;;1999.90;999.90;;;25.70;99.40;;;;;;5051195;28;20036;-74
2022/08/14 07:28:13;;;;;;;1999.90;999.90;;;25.50;99.30;;;;;;5070113;28;20477;-74
2022/08/14 07:30:39;;;;;;;1999.90;999.90;;;25.30;99.40;;;;;;5052577;28;20048;-74
2022/08/14 07:33:06;;;;;;;1999.90;999.90;;;25.10;99.90;;;;;;5069609;28;20592;-74
2022/08/14 07:35:32;;;;;;;1999.90;999.90;;;25.00;99.90;;;;;;5060042;28;20048;-74
2022/08/14 07:37:58;;;;;;;1999.90;999.90;;;25.10;99.90;;;;;;5041528;28;20127;-73
2022/08/14 07:40:24;;;;;;;1999.90;999.90;;;25.00;99.90;;;;;;5068843;28;20186;-74
2022/08/14 07:42:49;;;;;;;1999.90;999.90;;;25.00;99.90;;;;;;5049735;28;20036;-74
2022/08/14 07:45:15;;;;;;;1999.90;999.90;;;25.00;99.90;;;;;;5067317;28;20044;-74
2022/08/14 07:47:42;;;;;;;1999.90;999.90;;;25.00;99.90;;;;;;5069198;28;20045;-74
2022/08/14 07:50:15;;;;;;;1999.90;999.90;;;25.00;99.90;;;;;;5067969;28;20044;-74
2022/08/14 07:52:46;;;;;;;1999.90;999.90;;;25.10;99.90;;;;;;5068968;28;20052;-74
2022/08/14 07:55:13;;;;;;;1999.90;999.90;;;25.10;99.90;;;;;;5050527;28;20051;-74
2022/08/14 07:57:43;;;;;;;1999.90;999.90;;;25.10;99.90;;;;;;5069348;28;20412;-74
2022/08/14 08:00:15;;;;;;;1999.90;999.90;;;25.20;99.90;;;;;;5055344;28;20095;-74
2022/08/14 08:02:44;;;;;;;1999.90;999.90;;;25.20;99.90;;;;;;5051812;28;20395;-74
2022/08/14 08:05:11;;;;;;;1999.90;999.90;;;25.30;99.90;;;;;;5075729;28;20218;-74
2022/08/14 08:07:38;;;;;;;1999.90;999.90;;;25.30;99.80;;;;;;5054084;28;20036;-74
2022/08/14 08:12:55;;;;;;;1999.90;999.90;;;25.30;99.80;;;;;;5049521;28;20121;-74
2022/08/14 08:15:22;;;;;;;1999.90;999.90;;;25.40;99.70;;;;;;5048418;28;20118;-74
2022/08/14 08:17:48;;;;;;;1999.90;999.90;;;25.40;99.70;;;;;;5053370;28;20044;-74
2022/08/14 08:20:25;;;;;;;1999.90;999.90;;;25.40;99.80;;;;;;5043594;28;20059;-74
2022/08/14 08:22:54;;;;;;;1999.90;999.90;;;25.60;99.90;;;;;;5068604;28;20036;-74
2022/08/14 08:25:20;;;;;;;1999.90;999.90;;;25.60;99.70;;;;;;5066716;28;20115;-74
2022/08/14 08:28:00;;;;;;;1999.90;999.90;;;25.70;99.60;;;;;;5049487;28;20040;-74
2022/08/14 08:30:29;;;;;;;1999.90;999.90;;;25.70;99.20;;;;;;5068084;28;20051;-74
2022/08/14 08:32:56;;;;;;;1999.90;999.90;;;25.80;98.90;;;;;;5051994;28;20386;-74
2022/08/14 08:35:26;;;;;;;1999.90;999.90;;;25.90;98.80;;;;;;5050742;28;20052;-74
2022/08/14 08:37:54;;;;;;;1999.90;999.90;;;25.90;98.70;;;;;;5054850;28;20045;-74
2022/08/14 08:40:35;;;;;;;1999.90;999.90;;;26.00;98.70;;;;;;5050546;28;20056;-74
2022/08/14 08:43:16;;;;;;;1999.90;999.90;;;26.10;98.50;;;;;;5065787;28;20129;-74
2022/08/14 08:45:41;;;;;;;1999.90;999.90;;;26.30;98.40;;;;;;5089354;28;20111;-73
2022/08/14 08:48:07;;;;;;;1999.90;999.90;;;26.60;98.00;;;;;;5051575;28;20127;-73
2022/08/14 08:50:38;;;;;;;1999.90;999.90;;;26.90;97.00;;;;;;5046551;28;20033;-74
2022/08/14 08:53:07;;;;;;;1999.90;999.90;;;27.30;96.50;;;;;;5043897;28;20048;-74
2022/08/14 08:55:39;;;;;;;1999.90;999.90;;;28.10;96.10;;;;;;5067907;28;20053;-74
2022/08/14 08:58:16;;;;;;;1999.90;999.90;;;28.90;94.00;;;;;;5048885;28;20166;-74
2022/08/14 09:00:45;;;;;;;1999.90;999.90;;;29.70;92.90;;;;;;5050286;28;20515;-74
2022/08/14 09:03:14;;;;;;;1999.90;999.90;;;30.40;91.30;;;;;;5062925;28;20552;-74
2022/08/14 09:06:06;;;;;;;1999.90;999.90;;;30.80;88.90;;;;;;5049106;28;20392;-74
2022/08/14 09:08:34;;;;;;;1999.90;999.90;;;31.00;86.30;;;;;;5066122;28;20052;-74
2022/08/14 09:11:08;;;;;;;1999.90;999.90;;;31.40;86.40;;;;;;5067709;28;20532;-74
2022/08/14 09:13:34;;;;;;;1999.90;999.90;;;31.80;82.80;;;;;;5049669;28;20036;-75
2022/08/14 09:16:00;;;;;;;1999.90;999.90;;;31.90;81.70;;;;;;5067495;28;20115;-74
2022/08/14 09:18:26;;;;;;;1999.90;999.90;;;32.20;80.20;;;;;;5066608;28;20115;-75
2022/08/14 09:20:54;;;;;;;1999.90;999.90;;;32.30;77.80;;;;;;5067264;28;20036;-74
2022/08/14 09:23:21;;;;;;;1999.90;999.90;;;32.40;77.30;;;;;;5068094;28;20127;-74
2022/08/14 09:25:48;;;;;;;1999.90;999.90;;;32.50;75.70;;;;;;5049878;28;20036;-74
2022/08/14 09:28:16;;;;;;;1999.90;999.90;;;32.40;74.50;;;;;;5038530;28;20098;-75
2022/08/14 09:30:46;;;;;;;1999.90;999.90;;;32.50;74.30;;;;;;5040858;28;20045;-74
2022/08/14 09:33:30;;;;;;;1999.90;999.90;;;32.70;72.60;;;;;;5061762;28;20124;-74
2022/08/14 09:36:13;;;;;;;1999.90;999.90;;;32.70;72.70;;;;;;5050591;28;20045;-74
2022/08/14 09:38:52;;;;;;;1999.90;999.90;;;32.80;72.00;;;;;;5036553;28;20056;-74
2022/08/14 09:41:36;;;;;;;1999.90;999.90;;;32.90;71.10;;;;;;5050641;28;20067;-74
2022/08/14 09:44:05;;;;;;;1999.90;999.90;;;32.80;71.20;;;;;;5088481;28;20048;-73
2022/08/14 09:46:32;;;;;;;1999.90;999.90;;;32.80;69.90;;;;;;5049754;28;20401;-74
2022/08/14 09:49:04;;;;;;;1999.90;999.90;;;32.70;71.40;;;;;;5073107;28;20037;-75
2022/08/14 09:51:31;;;;;;;1999.90;999.90;;;32.80;70.60;;;;;;5047433;28;20547;-74
2022/08/14 09:54:11;;;;;;;1999.90;999.90;;;33.00;71.90;;;;;;5066681;28;20128;-74
2022/08/14 09:56:49;;;;;;;1999.90;999.90;;;33.00;70.30;;;;;;5061923;28;20334;-74
2022/08/14 09:59:21;;;;;;;1999.90;999.90;;;33.00;69.80;;;;;;5071216;28;20044;-74
2022/08/14 10:01:48;;;;;;;1999.90;999.90;;;33.10;69.90;;;;;;5058607;28;20142;-74
2022/08/14 10:04:27;;;;;;;1999.90;999.90;;;33.20;69.10;;;;;;5047090;28;20079;-74
2022/08/14 10:06:54;;;;;;;1999.90;999.90;;;33.10;69.90;;;;;;5066959;28;20058;-74
2022/08/14 10:09:19;;;;;;;1999.90;999.90;;;33.10;69.70;;;;;;5050612;28;20483;-74
2022/08/14 10:11:56;;;;;;;1999.90;999.90;;;33.00;67.40;;;;;;5042769;28;20047;-74
2022/08/14 10:14:24;;;;;;;1999.90;999.90;;;32.90;67.80;;;;;;5083375;28;20131;-74
2022/08/14 10:16:56;;;;;;;1999.90;999.90;;;32.80;68.80;;;;;;5046727;28;20040;-74
2022/08/14 10:19:24;;;;;;;1999.90;999.90;;;32.80;67.10;;;;;;5047491;28;20055;-74
2022/08/14 10:21:59;;;;;;;1999.90;999.90;;;32.70;67.90;;;;;;5041242;28;20045;-73
2022/08/14 10:24:28;;;;;;;1999.90;999.90;;;32.70;67.70;;;;;;5066162;28;20058;-74
2022/08/14 10:26:56;;;;;;;1999.90;999.90;;;32.50;66.60;;;;;;5058787;28;20070;-74
2022/08/14 10:29:36;;;;;;;1999.90;999.90;;;32.30;68.00;;;;;;5049220;28;20032;-74
2022/08/14 10:32:03;;;;;;;1999.90;999.90;;;32.30;67.50;;;;;;5043351;28;20046;-74
2022/08/14 10:34:32;;;;;;;1999.90;999.90;;;32.50;67.80;;;;;;5049805;28;20439;-74
2022/08/14 10:37:08;;;;;;;1999.90;999.90;;;32.50;67.00;;;;;;5042312;28;20128;-74
2022/08/14 10:39:35;;;;;;;1999.90;999.90;;;32.40;66.40;;;;;;5043086;28;20427;-74
2022/08/14 10:42:10;;;;;;;1999.90;999.90;;;32.40;68.40;;;;;;5066252;28;20055;-74
2022/08/14 10:44:44;;;;;;;1999.90;999.90;;;32.50;67.70;;;;;;5062034;28;20378;-74
2022/08/14 10:47:12;;;;;;;1999.90;999.90;;;32.50;66.80;;;;;;5066950;28;20037;-74
2022/08/14 10:49:48;;;;;;;1999.90;999.90;;;32.50;67.60;;;;;;5066515;28;20079;-74
2022/08/14 10:52:20;;;;;;;1999.90;999.90;;;32.50;67.20;;;;;;5064821;28;20048;-74
2022/08/14 10:54:47;;;;;;;1999.90;999.90;;;32.50;68.50;;;;;;5049914;28;20040;-74
2022/08/14 10:57:25;;;;;;;1999.90;999.90;;;32.60;66.90;;;;;;5048760;28;20042;-74
2022/08/14 10:59:54;;;;;;;1999.90;999.90;;;32.70;66.40;;;;;;5074806;28;20044;-74
2022/08/14 11:02:31;;;;;;;1999.90;999.90;;;32.70;66.50;;;;;;5048275;28;20048;-74
2022/08/14 11:05:12;;;;;;;1999.90;999.90;;;32.60;65.70;;;;;;5070938;28;20049;-74
2022/08/14 11:07:40;;;;;;;1999.90;999.90;;;32.70;64.30;;;;;;5069358;28;20127;-74
2022/08/14 11:10:09;;;;;;;1999.90;999.90;;;32.70;66.30;;;;;;5067440;28;20089;-74
2022/08/14 11:12:44;;;;;;;1999.90;999.90;;;32.80;65.40;;;;;;5064867;28;20052;-74
2022/08/14 11:15:10;;;;;;;1999.90;999.90;;;32.80;65.40;;;;;;5041183;28;20047;-74
2022/08/14 11:17:35;;;;;;;1999.90;999.90;;;32.80;64.60;;;;;;5051784;28;20040;-74
2022/08/14 11:20:03;;;;;;;1999.90;999.90;;;32.90;65.50;;;;;;5053069;28;20044;-74
2022/08/14 11:22:30;;;;;;;1999.90;999.90;;;33.00;64.80;;;;;;5065998;28;20582;-74
2022/08/14 11:25:01;;;;;;;1999.90;999.90;;;33.20;64.80;;;;;;5069183;28;20119;-74
2022/08/14 11:27:30;;;;;;;1999.90;999.90;;;33.20;63.20;;;;;;5060423;28;20056;-74
2022/08/14 11:29:59;;;;;;;1999.90;999.90;;;33.20;63.00;;;;;;5053188;28;20040;-74
2022/08/14 11:32:25;;;;;;;1999.90;999.90;;;33.10;61.90;;;;;;5052967;28;20045;-74
2022/08/14 11:34:52;;;;;;;1999.90;999.90;;;33.00;61.80;;;;;;5051049;28;20047;-74
2022/08/14 11:37:17;;;;;;;1999.90;999.90;;;32.90;62.00;;;;;;5087439;28;20127;-74
2022/08/14 11:39:43;;;;;;;1999.90;999.90;;;32.90;63.40;;;;;;5050963;28;20119;-74
2022/08/14 11:42:23;;;;;;;1999.90;999.90;;;32.90;61.90;;;;;;5069516;28;20469;-74
2022/08/14 11:44:50;;;;;;;1999.90;999.90;;;32.90;62.30;;;;;;5069116;28;20045;-74
2022/08/14 11:47:18;;;;;;;1999.90;999.90;;;32.80;63.00;;;;;;5069668;28;20040;-74
2022/08/14 11:49:48;;;;;;;1999.90;999.90;;;32.80;63.30;;;;;;5066043;28;20511;-74
2022/08/14 11:52:18;;;;;;;1999.90;999.90;;;32.90;63.00;;;;;;5067764;28;20053;-73
2022/08/14 11:54:45;;;;;;;1999.90;999.90;;;33.00;62.70;;;;;;5051326;28;20052;-74
2022/08/14 11:57:15;;;;;;;1999.90;999.90;;;33.10;63.40;;;;;;5050539;28;20052;-74
2022/08/14 11:59:41;;;;;;;1999.90;999.90;;;33.10;62.40;;;;;;5051911;28;20102;-74
2022/08/14 12:02:15;;;;;;;1999.90;999.90;;;33.20;62.90;;;;;;5071595;28;20476;-74
2022/08/14 12:04:51;;;;;;;1999.90;999.90;;;33.30;62.80;;;;;;5042632;28;20511;-74
2022/08/14 12:07:17;;;;;;;1999.90;999.90;;;33.30;60.90;;;;;;5059482;28;20052;-74
2022/08/14 12:09:45;;;;;;;1999.90;999.90;;;33.40;62.20;;;;;;5060307;28;20048;-74
2022/08/14 12:12:22;;;;;;;1999.90;999.90;;;33.30;61.40;;;;;;5060523;28;20048;-73
2022/08/14 12:14:55;;;;;;;1999.90;999.90;;;33.20;61.50;;;;;;5052150;28;20123;-74
2022/08/14 12:17:22;;;;;;;1999.90;999.90;;;33.20;61.70;;;;;;5039065;28;20647;-73
2022/08/14 12:20:00;;;;;;;1999.90;999.90;;;33.10;61.40;;;;;;5068693;28;20048;-74
2022/08/14 12:22:34;;;;;;;1999.90;999.90;;;32.90;62.00;;;;;;5067220;28;20087;-74